Timeline UpdatesTrip UpdatesNews PostsPvt Posts♥♥Travel TipsAdmin PostsConv PostsFollowed PostsChat RequestsBlog PostsPNR Posts

Disclaimer
Search
 
 
Thu Oct 23, 2014 12:14:06 ISTHomeTrainsΣChainsAtlasPNRForumGalleryNewsFAQTripsMembersLoginFeedback
No Recent News for this Train
Other Trains in the News **new
Latest...
..
Tue Jul 15, 2014 (07:57PM)
⇐ Return Journey: Train# 12289

12290/Nagpur - Mumbai CST Duronto Express

NO Time-Table Change.
Oct 10 (11:29AM)
Change Departure Station:
Change Arrival Station:
Post a Train Travel TipPost a Train Travel Tip **new
Post a Comment/Question/Picture/VideoPost a Comment/Question/Picture/Video
Inaugural Run
Mon Nov 23, 2009
Pantry/Catering
✕ NO Pantry Car
✕ NO Catering
RSA - Rake Sharing
No RSA. Hybrid LHB Rake.
Rake/Coach Composition
LOCO-SLR-H1-A1-A2-A3-B1-B2-B3-B4-S1-S2-S3-S4-S5-S6-S7-S8-S9-SE1-SE2-SLR = 21coach
Loco
NGP-IGP: AJNI WAP-7 IGP-CSTM: KYN WCAM-3.
News    PNR    Forum    Time-Table    Availability    Fare Chart    Map    Arr/Dep History    Trips    Gallery    ΣChains    X/O    Timeline    
Travel Time: 11h 15m    2 halts    Distance: 835 km    Avg Speed: 74 km/hr
Type: Duronto
Zone: CR/Central
Departs @ 20:40 (Avg on time)
Platform# 8
SMTWTFS
Nagpur Junction/NGP 
Arrives @ 07:55 +1 night (Avg 4m late)
Platform# 18
SMTWTFS
Mumbai CST/CSTM 

2 halts. 123 intermediate Stations between Nagpur Junction and Mumbai CST

Hide intermediate Stations  

#TrkCodeStation NameX/OArrivesAvgDepartsAvgHaltPFDay#KmSpeedElevZoneAddress
1/==/NGPNagpur Junction (8)»  -20:40+0810.084314mCRNagpur 440001, Maharashtra
1.1/==/MIBNagpur Moti Bagh (1)  20:41-20:41-  10.8 84309mCRNagpur, Maharashtra
1.2/==/AJNIAjni (3)X  20:42-20:42-  13.0 84310mCRNagpur 440003, Maharashtra
1.3/==/KRIKhapri (2)X  20:49-20:49-  112.3 84312mCRNagpur, Maharashtra
1.4/==/GMGGumgaon (2)X  20:53-20:53-  118.9 84302mCRNagpur, Maharashtra
1.5/==/BTBRButi Bori (4)  21:00-21:00-  127.6 84269mCRButi Bori, Maharashtra
1.6/==/BOKBorkhediX  21:05-21:05-  135.4 84268mCRWardha, Maharashtra
1.7/==/SNISindi (2)  21:13-21:13-  146.9 84258mCRWardha, Maharashtra
1.8/==/TGPTuljapur (2)  21:19-21:19-  154.8 84259mCRTuljapur, Maharashtra
1.9/==/SLORSeloo RoadO  21:26-21:26-  164.9 84256mCRMSH3, Maharashtra
1.10/==/VADRWarud  21:32-21:32-  172.8 84261mCRSewagram, Maharashtra
1.11/==/SEGMSewagram Junction (5)  21:34-21:34-  176.2 84279mCRWardha, Maharashtra
1.12/==/WRWardha Junction (4)O  21:36-21:36-  178.9 84289mCRWardha 442001, Maharashtra
1.13/==/DAEDahegaon  21:46-21:46-  192.7 84275mCRMumbai Hwy, Maharashtra
1.14/==/KAOTKaotha  21:53-21:53-  1101.7 84283mCRPulgaon, Maharashtra
1.15/==/PLOPulgaon Junction (3)X  21:57-21:57-  1108.4 84273mCRPulgaon, Maharashtra
1.16/==/TLNTalni  22:04-22:04-  1118.1 84277mCRPulgaon, Maharashtra
1.17/==/DMNDhamangaon (2)  22:12-22:12-  1128.4 84300mCRDhamangaon, Maharashtra
1.18/==/DIPDiporeX  22:19-22:19-  1138.6 84322mCRState Highway 243, Maharashtra
1.19/==/CNDChandur (2)X  22:24-22:24-  1145.1 84331mCRAmravati Distt, Maharashtra
1.20/==/MLRMalkhedX  22:33-22:33-  1158.1 84342mCRLalkhed, Maharashtra
1.21/==/TMTTimtala  22:38-22:38-  1165.4 84350mCRAmravati, Maharashtra
1.22/==/BDBadnera Junction (4)XOp22:44-22:44-  1173.8 84335mCRBadnera (Amravati) 444701, Maharashtra
1.23/==/TKITakliXO  22:50-22:50-  1182.3 84331mCRBadnera, Maharashtra
1.24/==/KUMKuramX  22:56-22:56-  1190.0 84308mCRAkola, Maharashtra
1.25/==/MNDAMandura  23:01-23:01-  1197.4 84303mCRMurtizapur, Maharashtra
1.26/==/MANAMana (2)X  23:05-23:05-  1203.5 84294mCRMANA dist Akola, Maharashtra
1.27/==/MZRMurtizapur (3)  23:14-23:14-  1215.6 84303mCRMurtajapur, Maharashtra
1.28/==/KTPKatepurna  23:21-23:21-  1226.0 84292mCRNational Highway 6, Maharashtra
1.29/==/BGNBorgaon  23:28-23:28-  1234.8 84304mCRAkola, Maharashtra
1.30/==/YADYeulkhed  23:35-23:35-  1245.6 84297mCRAkola, Maharashtra
1.31/==/AKAkola Junction (7)  23:40-23:40-  1252.8 84284mCRAkola-444001, Maharashtra
1.32/==/GAOGaigaon (2)  23:49-23:49-  1265.1 84301mCRAkola, Maharashtra
1.33/==/PSParas (2)  23:55-23:55-  1272.8 84282mCRAkola, Maharashtra
1.34/==/NGZS K Nagjihari (2)  00:01-00:01-  2282.1 84274mCRDist. Akola, Maharashtra
1.35/==/SEGShegaon (2)X  00:07-00:07-  2290.0 84281mCRShegaon 444203, Maharashtra
1.36/==/JMJalamb Junction (3)X  00:16-00:16-  2302.4 84259mCRJalamb, Maharashtra
1.37/==/NNNandura (2)X  00:24-00:24-  2314.6 84267mCRNandura, Maharashtra
1.38/==/KJLKhumgaon Burti  00:30-00:30-  2322.0 84253mCRBuldhana, Maharashtra
1.39/==/BISBiswa Bridge  00:34-00:34-  2328.3 84252mCRBuldhana, Maharashtra
1.40/==/WADOWadoda  00:39-00:39-  2334.5 84252mCRNH 6, Maharashtra
1.41/==/MKUMalkapur (2)  00:44-00:44-  2342.5 84252mCRMalkapur, Maharashtra
1.42/==/KMKDKhamkhed  00:51-00:51-  2351.1 84252mCRMalkapur, Maharashtra
1.43/==/KLHDKolhadiO  00:55-00:55-  2357.7 84278mCRMalkapur, Maharashtra
1.44/==/BDWDBodwad (2)  00:58-00:58-  2362.1 84294mCRBodwad, Maharashtra
1.45/==/ACGAchegaon  01:07-01:07-  2374.0 84234mCRVarangaon, Maharashtra
1.46/==/VNAVarangaon (3)  01:11-01:11-  2379.7 84220mCRVarangaon, Maharashtra
1.47/==/BSCNBhusaval C Cabin  01:17-01:17-  2388.2 84219mCRBhusawal, Maharashtra
2/==/BSLBhusaval Junction (8)T01:20-101:25-5m--2392.495208mCRBhusaval 425201, Maharashtra
2.1/==/BDIBhadli (2)X  01:33-01:33-  2405.0 95211mCRBhadli, Maharashtra
2.2/==/TRWTarsod  01:37-01:37-  2411.8 95206mCRAsoda - Tarsod Road, Maharashtra
2.3/==/JLJalgaon Junction (4)X  01:40-01:40-  2416.5 95213mCRJalgaon 425001, Maharashtra
2.4/==/SSShirsoli (2)X  01:48-01:48-  2428.3 95211mCRShirsoli, Maharashtra
2.5/==/MWDMhasavad (3)X  01:54-01:54-  2437.6 95220mCRMhasavad, Maharashtra
2.6/==/MYJMaheji (2)X  02:01-02:01-  2449.4 95247mCRJalgaon, Maharashtra
2.7/==/PHQPardhande (2)X  02:06-02:06-  2456.8 95243mCRPardhande, Maharashtra
2.8/==/PCPachora Junction (4)  02:11-02:11-  2464.2 95264mCRPachora 424201, Maharashtra
2.9/==/GAAGalan (2)  02:17-02:17-  2474.7 95282mCRGalan, Maharashtra
2.10/==/NGDNagardevla (2)X  02:23-02:23-  2483.1 95280mCRNagardevla, Maharashtra
2.11/==/KJKajgaon (3)  02:27-02:27-  2490.0 95297mCRKajgaon, Maharashtra
2.12/==/VGLVaghli (2)  02:33-02:33-  2499.7 95331mCRVaghli, Maharashtra
2.13/==/CSNChalisgaon Junction (3)  02:39-02:39-  2509.1 95352mCRChalisgaon 424101, Maharashtra
2.14/==/HPRHirapur (2)X  02:44-02:44-  2516.9 95373mCRHirapur, Maharashtra
2.15/==/RHNERohini (2)  02:50-02:50-  2526.0 95422mCRRohini, Maharashtra
2.16/==/NINaydongri (2)O  02:53-02:53-  2530.6 95427mCRNaydongri, Maharashtra
2.17/==/PKEPimpar Khed (2)X  02:59-02:59-  2540.4 95462mCRPimpar Khed, Maharashtra
2.18/==/NGNNandgaon (3)  03:06-03:06-  2551.2 95476mCRNandgaon, Maharashtra
2.19/==/PJNPanjhan (2)X  03:10-03:10-  2557.7 95514mCRPanjhan, Maharashtra
2.20/==/HSLHisvahal (2)  03:13-03:13-  2563.2 95540mCRHisvahal, Maharashtra
2.21/==/PNVPanevadi (2)X  03:18-03:18-  2570.9 95561mCRPanevadi, Maharashtra
2.22/==/MMRManmad Junction (6)  03:22-03:22-  2576.6 95580mCRManmad 423104, Maharashtra
2.23/==/SUMSummit (2)X  03:30-03:30-  2589.0 95632mCRSummit, Maharashtra
2.24/==/LSLasalgaon (3)X  03:37-03:37-  2601.1 95592mCRLasalgaon, Maharashtra
2.25/==/UGNUgaon (2)X  03:44-03:44-  2611.0 95568mCRUgaon, Maharashtra
2.26/==/NRNiphad (3)  03:48-03:48-  2618.0 95550mCRNashik, Maharashtra
2.27/==/KBSNKasbe Sukene (3)X  03:52-03:52-  2624.0 95548mCRKasbe Sukene, Maharashtra
2.28/==/KWKhervadi (2)  03:56-03:56-  2630.7 95553mCRKherwadi, Maharashtra
2.29/==/ODHAOdha (2)X  04:01-04:01-  2637.8 95571mCRDist. Nashik, Maharashtra
2.30/==/NKNasik Road (3)X  04:08-04:08-  2649.4 95563mCRNashik 422101, Maharashtra
2.31/==/DVLDevlali (3)  04:12-04:12-  2655.1 95561mCRDist. Nashik 422401, Maharashtra
2.32/==/LTLahavit (1)X  04:16-04:16-  2662.7 95587mCRWadhiware, Maharashtra
2.33/==/AVAsvali (2)  04:24-04:24-  2675.1 95578mCRAsvali, Maharashtra
2.34/==/PIPadli (1)  04:30-04:30-  2683.6 95591mCRNational Highway 3, Maharashtra
2.35/==/GOGhoti (2)O  04:35-04:35-  2691.9 95581mCRGhoti, Maharashtra
3/==/IGPIgatpuri (4)O04:40+005:00+020m--2700.046589mCRIgatpuri 422403, Maharashtra
3.1/==/TGR2Block & Catch Siding Cabin 2  05:09-05:09-  2707.1 46473mCRNational Highway 3, Maharashtra
3.2/==/TGR3Block & Catch Siding Cabin 3  05:14-05:14-  2710.7 46365mCRNH-3, Maharashtra
3.3/==/KSRAKasara (4)  05:19-05:19-  2714.4 46290mCRDist. Thane 421602, Maharashtra
3.4/==/OMBOombermali  05:27-05:27-  2721.2 46248mCROombermali, Maharashtra
3.5/==/KEKhardi (2)  05:36-05:36-  2727.7 46232mCRKhardi, Maharashtra
3.6/==/THSThansit  05:44-05:44-  2733.9 46184mCRNational Highway 3, Maharashtra
3.7/==/ATGAtgaon (2)O  05:52-05:52-  2739.8 46147mCRAtgaon, Maharashtra
3.8/==/ASOAsangaon (3)  06:04-06:04-  2749.6 4677mCRDist. Thane, Maharashtra
3.9/==/VSDVasind (2)  06:12-06:12-  2755.6 4632mCRVasind, Maharashtra
3.10/==/KDVKhadavli (3)X  06:22-06:22-  2763.2 4623mCRKhadavli, Maharashtra
3.11/==/TLATitwala (3)  06:32-06:32-  2770.8 4617mCRTitwala, Maharashtra
3.12/==/ABYAmbivli (2)X  06:38-06:38-  2775.6 4622mCRAmbivli, Maharashtra
3.13/==/SHADShahad (2)  06:42-06:42-  2778.6 4612mCRUlhasnagar, Maharashtra
3.14/==/KYNKalyan Junction (8)  06:46-06:46-  2781.8 4610mCRKalyan 421301, Maharashtra
3.15/==/THKThakurli (2)X  06:51-06:51-  2785.4 4614mCRThakurli, Maharashtra
3.16/==/DIDombivli (5)  06:53-06:53-  2786.8 4611mCRDombivli, Maharashtra
3.17/==/KOPRKopar (4)X  06:54-06:54-  2788.1 460mCRKopar, Maharashtra
3.18/==/DIVADiva Junction (6)  07:00-07:00-  2792.4 463mCRJn Pt TNA/PNVL/KYN/BSR Diva, Maharashtra
3.19/==/MBQMumbra (2)X  07:03-07:03-  2795.0 468mCRMumbra, Maharashtra
3.20/==/KLVAKalva (2)  07:09-07:09-  2799.5 465mCRKalva, Maharashtra
3.21/==/TNAThane (10)X  07:12-07:12-  2802.0 4610mCRThane (West) 400602, Maharashtra
3.22/==/MLNDMulund (4)  07:16-07:16-  2804.6 4612mCRMumbai, Maharashtra
3.23/==/NHUNahur (2)  07:19-07:19-  2806.8 465mCRMumbai, Maharashtra
3.24/==/BNDBhandup (4)  07:21-07:21-  2808.5 467mCRMumbai 400078, Maharashtra
3.25/==/KJMGKanjur Marg (2)  07:23-07:23-  2810.3 465mCRMumbai, Maharashtra
3.26/==/VKVikhroli (4)X  07:25-07:25-  2812.2 4610mCRMumbai, Maharashtra
3.27/==/GCGhatkopar (4)  07:30-07:30-  2815.8 4611mCRMumbai 400086, Maharashtra
3.28/==/VVHVidyavihar (2)X  07:32-07:32-  2817.2 468mCRMumbai, Maharashtra
3.29/==/LTTMumbai Lokmanya Tilak Terminus (5)  07:34-07:34-  2818.5 467mCRMumbai - 400089, Maharashtra
3.30/==/CLAKurla Junction (8)  07:35-07:35-  2819.6 468mCRMumbai, Maharashtra
3.31/==/SINMumbai Sion (4)  07:39-07:39-  2822.2 467mCRMumbai, Maharashtra
3.32/==/MTNMumbai Matunga (4)  07:42-07:42-  2824.9 467mCRMumbai, Maharashtra
3.33/==/DRMumbai Dadar Central (8)  07:44-07:44-  2826.3 467mCRMumbai 400014, Maharashtra
3.34/==/PRMumbai Parel (4)  07:45-07:45-  2827.3 466mCRMumbai, Maharashtra
3.35/==/CRDMumbai Currey Road (2)  07:47-07:47-  2829.1 465mCRMumbai, Maharashtra
3.36/==/CHGMumbai Chinchpokli (2)O  07:48-07:48-  2829.9 466mCRMumbai, Maharashtra
3.37/==/BYByculla (4)  07:50-07:50-  2831.0 469mCRMumbai 400027, Maharashtra
3.38/==/SNRDMumbai Sandhurst Road (4)  07:52-07:52-  2832.9 469mCRMumbai, Maharashtra
3.39/==/MSDMumbai Masjid (4)  07:54-07:54-  2834.0 4610mCRMumbai, Maharashtra
4/==/CSTMMumbai CST (18)•  07:55+4-182834.9-10mCRMumbai 400001, Maharashtra
Scroll to Top
Scroll to Bottom